sensor_id;sensor_type;location;lat;lon;timestamp;pressure;altitude;pressure_sealevel;temperature;humidity
13434;BME280;6789;47.678;9.158;2023-02-01T00:04:14;97619.72;;;4.69;86.45
13434;BME280;6789;47.678;9.158;2023-02-01T00:09:06;97616.44;;;4.75;86.33
13434;BME280;6789;47.678;9.158;2023-02-01T00:13:59;97609.03;;;4.64;85.92
13434;BME280;6789;47.678;9.158;2023-02-01T00:18:57;97608.38;;;4.62;85.79
13434;BME280;6789;47.678;9.158;2023-02-01T00:23:49;97598.94;;;4.69;85.65
13434;BME280;6789;47.678;9.158;2023-02-01T00:28:41;97597.00;;;4.71;85.67
13434;BME280;6789;47.678;9.158;2023-02-01T00:33:34;97594.41;;;4.63;85.10
13434;BME280;6789;47.678;9.158;2023-02-01T00:38:27;97587.91;;;4.67;84.28
13434;BME280;6789;47.678;9.158;2023-02-01T00:43:19;97585.47;;;4.66;84.80
13434;BME280;6789;47.678;9.158;2023-02-01T00:48:11;97583.34;;;4.77;84.07
13434;BME280;6789;47.678;9.158;2023-02-01T00:53:02;97579.00;;;4.62;84.61
13434;BME280;6789;47.678;9.158;2023-02-01T00:57:54;97582.72;;;4.67;84.29
13434;BME280;6789;47.678;9.158;2023-02-01T01:02:46;97577.88;;;4.56;84.13
13434;BME280;6789;47.678;9.158;2023-02-01T01:07:38;97565.53;;;4.66;83.73
13434;BME280;6789;47.678;9.158;2023-02-01T01:12:30;97577.84;;;4.64;83.43
13434;BME280;6789;47.678;9.158;2023-02-01T01:17:21;97595.22;;;4.64;83.46
13434;BME280;6789;47.678;9.158;2023-02-01T01:22:13;97594.69;;;4.84;82.86
13434;BME280;6789;47.678;9.158;2023-02-01T01:27:05;97587.28;;;4.65;83.60
13434;BME280;6789;47.678;9.158;2023-02-01T01:31:57;97584.00;;;4.71;83.74
13434;BME280;6789;47.678;9.158;2023-02-01T01:36:48;97577.84;;;4.64;83.94
13434;BME280;6789;47.678;9.158;2023-02-01T01:41:40;97579.28;;;4.75;83.44
13434;BME280;6789;47.678;9.158;2023-02-01T01:46:37;97582.72;;;4.67;83.50
13434;BME280;6789;47.678;9.158;2023-02-01T01:51:32;97583.69;;;4.74;83.74
13434;BME280;6789;47.678;9.158;2023-02-01T01:56:29;97571.19;;;4.70;83.72
13434;BME280;6789;47.678;9.158;2023-02-01T02:01:22;97563.53;;;4.68;83.90
13434;BME280;6789;47.678;9.158;2023-02-01T02:06:20;97565.69;;;4.65;83.94
13434;BME280;6789;47.678;9.158;2023-02-01T02:11:17;97542.63;;;4.62;83.77
13434;BME280;6789;47.678;9.158;2023-02-01T02:16:38;97542.47;;;4.63;83.96
13434;BME280;6789;47.678;9.158;2023-02-01T02:27:37;97542.47;;;4.63;83.06
13434;BME280;6789;47.678;9.158;2023-02-01T02:38:07;97549.78;;;4.60;84.09
13434;BME280;6789;47.678;9.158;2023-02-01T02:43:23;97551.56;;;4.59;83.31
13434;BME280;6789;47.678;9.158;2023-02-01T02:48:47;97547.03;;;4.61;83.57
13434;BME280;6789;47.678;9.158;2023-02-01T02:53:55;97535.03;;;4.60;83.70
13434;BME280;6789;47.678;9.158;2023-02-01T02:59:11;97529.00;;;4.60;83.65
13434;BME280;6789;47.678;9.158;2023-02-01T03:04:23;97525.16;;;4.48;84.10
13434;BME280;6789;47.678;9.158;2023-02-01T03:09:47;97530.84;;;4.43;84.50
13434;BME280;6789;47.678;9.158;2023-02-01T03:14:45;97525.03;;;4.33;84.12
13434;BME280;6789;47.678;9.158;2023-02-01T03:19:45;97531.06;;;4.26;84.91
13434;BME280;6789;47.678;9.158;2023-02-01T03:24:51;97559.13;;;4.30;84.52
13434;BME280;6789;47.678;9.158;2023-02-01T03:35:01;97532.53;;;4.21;84.64
13434;BME280;6789;47.678;9.158;2023-02-01T03:40:07;97524.41;;;4.23;84.52
13434;BME280;6789;47.678;9.158;2023-02-01T03:45:29;97535.78;;;4.15;84.77
13434;BME280;6789;47.678;9.158;2023-02-01T03:50:25;97532.22;;;4.08;85.46
13434;BME280;6789;47.678;9.158;2023-02-01T03:55:22;97535.47;;;4.10;85.23
13434;BME280;6789;47.678;9.158;2023-02-01T04:00:24;97541.78;;;4.07;85.84
13434;BME280;6789;47.678;9.158;2023-02-01T04:05:17;97552.47;;;4.04;85.33
13434;BME280;6789;47.678;9.158;2023-02-01T04:10:10;97549.41;;;4.09;85.57
13434;BME280;6789;47.678;9.158;2023-02-01T04:15:03;97555.25;;;4.03;86.13
13434;BME280;6789;47.678;9.158;2023-02-01T04:19:55;97556.22;;;4.02;86.18
13434;BME280;6789;47.678;9.158;2023-02-01T04:24:48;97566.28;;;4.05;86.62
13434;BME280;6789;47.678;9.158;2023-02-01T04:29:39;97579.75;;;4.08;86.31
13434;BME280;6789;47.678;9.158;2023-02-01T04:34:32;97577.28;;;4.07;86.91
13434;BME280;6789;47.678;9.158;2023-02-01T04:39:24;97592.22;;;4.05;87.67
13434;BME280;6789;47.678;9.158;2023-02-01T04:44:18;97602.28;;;4.00;87.93
13434;BME280;6789;47.678;9.158;2023-02-01T04:49:11;97608.94;;;4.02;87.86
13434;BME280;6789;47.678;9.158;2023-02-01T04:54:03;97613.13;;;4.03;88.04
13434;BME280;6789;47.678;9.158;2023-02-01T04:58:55;97619.16;;;4.04;88.27
13434;BME280;6789;47.678;9.158;2023-02-01T05:03:47;97616.22;;;3.99;88.37
13434;BME280;6789;47.678;9.158;2023-02-01T05:08:53;97594.19;;;4.11;88.62
13434;BME280;6789;47.678;9.158;2023-02-01T05:13:54;97580.22;;;4.12;88.16
13434;BME280;6789;47.678;9.158;2023-02-01T05:19:00;97582.81;;;4.12;88.67
13434;BME280;6789;47.678;9.158;2023-02-01T05:23:54;97562.22;;;4.10;88.27
13434;BME280;6789;47.678;9.158;2023-02-01T05:29:16;97552.00;;;4.01;88.73
13434;BME280;6789;47.678;9.158;2023-02-01T05:34:16;97560.75;;;4.08;88.79
13434;BME280;6789;47.678;9.158;2023-02-01T05:39:22;97572.28;;;4.13;88.34
13434;BME280;6789;47.678;9.158;2023-02-01T05:44:21;97595.47;;;4.15;88.53
13434;BME280;6789;47.678;9.158;2023-02-01T05:49:27;97605.03;;;4.06;88.54
13434;BME280;6789;47.678;9.158;2023-02-01T05:54:33;97597.41;;;4.05;88.38
13434;BME280;6789;47.678;9.158;2023-02-01T05:59:39;97593.19;;;4.04;88.16
13434;BME280;6789;47.678;9.158;2023-02-01T06:04:51;97559.47;;;3.96;88.53
13434;BME280;6789;47.678;9.158;2023-02-01T06:09:56;97576.31;;;4.08;88.08
13434;BME280;6789;47.678;9.158;2023-02-01T06:15:02;97577.31;;;3.91;89.16
13434;BME280;6789;47.678;9.158;2023-02-01T06:20:14;97587.69;;;3.91;88.85
13434;BME280;6789;47.678;9.158;2023-02-01T06:25:20;97595.63;;;4.05;88.66
13434;BME280;6789;47.678;9.158;2023-02-01T06:30:29;97607.31;;;4.09;89.15
13434;BME280;6789;47.678;9.158;2023-02-01T06:35:35;97621.41;;;4.07;88.66
13434;BME280;6789;47.678;9.158;2023-02-01T06:40:42;97616.88;;;3.93;89.50
13434;BME280;6789;47.678;9.158;2023-02-01T06:45:50;97628.88;;;4.02;89.43
13434;BME280;6789;47.678;9.158;2023-02-01T06:50:56;97636.34;;;4.05;89.16
13434;BME280;6789;47.678;9.158;2023-02-01T06:56:03;97630.50;;;4.03;88.34
13434;BME280;6789;47.678;9.158;2023-02-01T07:01:11;97646.69;;;3.97;88.66
13434;BME280;6789;47.678;9.158;2023-02-01T07:06:18;97655.97;;;4.07;88.76
13434;BME280;6789;47.678;9.158;2023-02-01T07:11:24;97652.06;;;4.11;89.77
13434;BME280;6789;47.678;9.158;2023-02-01T07:16:19;97655.97;;;4.07;89.39
13434;BME280;6789;47.678;9.158;2023-02-01T07:21:25;97656.41;;;3.95;90.51
13434;BME280;6789;47.678;9.158;2023-02-01T07:26:34;97656.78;;;4.16;89.81
13434;BME280;6789;47.678;9.158;2023-02-01T07:31:40;97650.28;;;4.12;89.90
13434;BME280;6789;47.678;9.158;2023-02-01T07:36:45;97648.34;;;4.06;90.34
13434;BME280;6789;47.678;9.158;2023-02-01T07:41:55;97634.06;;;4.02;90.75
13434;BME280;6789;47.678;9.158;2023-02-01T07:47:02;97640.56;;;3.98;91.20
13434;BME280;6789;47.678;9.158;2023-02-01T07:52:09;97630.84;;;4.00;91.42
13434;BME280;6789;47.678;9.158;2023-02-01T07:57:16;97636.97;;;3.91;91.68
13434;BME280;6789;47.678;9.158;2023-02-01T08:02:22;97629.19;;;3.83;92.45
13434;BME280;6789;47.678;9.158;2023-02-01T08:07:29;97630.16;;;3.90;92.86
13434;BME280;6789;47.678;9.158;2023-02-01T08:12:37;97631.78;;;4.07;92.49
13434;BME280;6789;47.678;9.158;2023-02-01T08:17:59;97646.22;;;4.01;92.70
13434;BME280;6789;47.678;9.158;2023-02-01T08:23:08;97655.31;;;4.13;93.11
13434;BME280;6789;47.678;9.158;2023-02-01T08:28:15;97652.22;;;4.25;93.01
13434;BME280;6789;47.678;9.158;2023-02-01T08:33:21;97640.22;;;4.32;93.27
13434;BME280;6789;47.678;9.158;2023-02-01T08:38:15;97647.88;;;4.34;93.37
13434;BME280;6789;47.678;9.158;2023-02-01T08:43:21;97646.56;;;4.30;93.70
13434;BME280;6789;47.678;9.158;2023-02-01T08:48:27;97641.66;;;4.35;93.36
13434;BME280;6789;47.678;9.158;2023-02-01T08:53:33;97637.13;;;4.37;93.97
13434;BME280;6789;47.678;9.158;2023-02-01T08:58:40;97646.38;;;4.39;94.03
13434;BME280;6789;47.678;9.158;2023-02-01T09:03:48;97647.22;;;4.40;94.59
13434;BME280;6789;47.678;9.158;2023-02-01T09:08:54;97651.56;;;4.47;94.16
13434;BME280;6789;47.678;9.158;2023-02-01T09:14:00;97671.69;;;4.45;94.37
13434;BME280;6789;47.678;9.158;2023-02-01T09:19:06;97682.91;;;4.38;95.24
13434;BME280;6789;47.678;9.158;2023-02-01T09:24:13;97685.97;;;4.41;94.90
13434;BME280;6789;47.678;9.158;2023-02-01T09:29:19;97687.63;;;4.42;94.89
13434;BME280;6789;47.678;9.158;2023-02-01T09:34:25;97689.03;;;4.53;94.24
13434;BME280;6789;47.678;9.158;2023-02-01T09:39:31;97676.88;;;4.53;94.49
13434;BME280;6789;47.678;9.158;2023-02-01T09:44:50;97671.53;;;4.71;94.18
13434;BME280;6789;47.678;9.158;2023-02-01T09:50:10;97670.50;;;4.80;93.47
13434;BME280;6789;47.678;9.158;2023-02-01T09:55:41;97672.13;;;4.89;92.86
13434;BME280;6789;47.678;9.158;2023-02-01T10:00:57;97686.09;;;4.95;91.82
13434;BME280;6789;47.678;9.158;2023-02-01T10:06:52;97673.88;;;5.04;90.51
13434;BME280;6789;47.678;9.158;2023-02-01T10:13:04;97665.38;;;5.18;89.04
13434;BME280;6789;47.678;9.158;2023-02-01T10:19:16;97650.03;;;5.31;89.47
13434;BME280;6789;47.678;9.158;2023-02-01T10:24:42;97656.13;;;5.54;88.16
13434;BME280;6789;47.678;9.158;2023-02-01T10:30:05;97654.13;;;5.63;86.84
13434;BME280;6789;47.678;9.158;2023-02-01T10:35:23;97647.72;;;5.82;85.85
13434;BME280;6789;47.678;9.158;2023-02-01T10:40:40;97643.03;;;5.77;85.77
13434;BME280;6789;47.678;9.158;2023-02-01T10:45:51;97644.47;;;5.80;86.19
13434;BME280;6789;47.678;9.158;2023-02-01T10:51:28;97636.53;;;6.18;84.25
13434;BME280;6789;47.678;9.158;2023-02-01T10:56:51;97657.59;;;6.68;81.11
13434;BME280;6789;47.678;9.158;2023-02-01T11:02:05;97653.06;;;6.99;79.18
13434;BME280;6789;47.678;9.158;2023-02-01T11:07:24;97643.59;;;7.41;77.80
13434;BME280;6789;47.678;9.158;2023-02-01T11:12:37;97643.25;;;7.44;76.34
13434;BME280;6789;47.678;9.158;2023-02-01T11:17:55;97633.53;;;7.73;76.27
13434;BME280;6789;47.678;9.158;2023-02-01T11:23:23;97615.47;;;7.72;75.21
13434;BME280;6789;47.678;9.158;2023-02-01T11:28:39;97619.34;;;7.61;75.95
13434;BME280;6789;47.678;9.158;2023-02-01T11:33:59;97612.09;;;8.34;73.97
13434;BME280;6789;47.678;9.158;2023-02-01T11:39:30;97627.59;;;8.62;71.24
13434;BME280;6789;47.678;9.158;2023-02-01T11:44:44;97619.88;;;8.54;71.80
13434;BME280;6789;47.678;9.158;2023-02-01T11:50:01;97623.50;;;8.81;70.71
13434;BME280;6789;47.678;9.158;2023-02-01T12:01:17;97608.38;;;7.66;73.32
13434;BME280;6789;47.678;9.158;2023-02-01T12:44:03;97534.75;;;7.00;77.98
13434;BME280;6789;47.678;9.158;2023-02-01T12:50:29;97529.28;;;6.95;77.85
13434;BME280;6789;47.678;9.158;2023-02-01T12:55:56;97524.78;;;6.89;77.21
13434;BME280;6789;47.678;9.158;2023-02-01T13:01:36;97533.50;;;6.67;80.17
13434;BME280;6789;47.678;9.158;2023-02-01T13:07:19;97532.44;;;6.76;81.27
13434;BME280;6789;47.678;9.158;2023-02-01T13:13:19;97522.53;;;6.71;80.68
13434;BME280;6789;47.678;9.158;2023-02-01T13:18:38;97522.38;;;6.58;81.67
13434;BME280;6789;47.678;9.158;2023-02-01T13:23:56;97499.91;;;6.43;82.15
13434;BME280;6789;47.678;9.158;2023-02-01T13:29:50;97486.44;;;6.39;78.77
13434;BME280;6789;47.678;9.158;2023-02-01T13:35:36;97497.03;;;6.38;76.57
13434;BME280;6789;47.678;9.158;2023-02-01T13:41:28;97503.16;;;6.45;73.99
13434;BME280;6789;47.678;9.158;2023-02-01T13:47:08;97513.03;;;6.49;74.40
13434;BME280;6789;47.678;9.158;2023-02-01T14:04:54;97521.66;;;6.36;74.14
13434;BME280;6789;47.678;9.158;2023-02-01T14:16:17;97541.75;;;6.27;73.49
13434;BME280;6789;47.678;9.158;2023-02-01T14:33:22;97553.09;;;6.34;72.82
13434;BME280;6789;47.678;9.158;2023-02-01T14:38:51;97553.88;;;6.35;71.03
13434;BME280;6789;47.678;9.158;2023-02-01T14:44:28;97571.66;;;6.31;71.29
13434;BME280;6789;47.678;9.158;2023-02-01T14:49:56;97556.50;;;6.35;70.31
13434;BME280;6789;47.678;9.158;2023-02-01T14:55:46;97551.91;;;6.37;69.67
13434;BME280;6789;47.678;9.158;2023-02-01T15:01:58;97545.63;;;6.31;71.16
13434;BME280;6789;47.678;9.158;2023-02-01T15:07:13;97554.72;;;6.35;69.52
13434;BME280;6789;47.678;9.158;2023-02-01T15:12:32;97553.44;;;6.31;70.46
13434;BME280;6789;47.678;9.158;2023-02-01T15:17:41;97552.00;;;6.29;70.35
13434;BME280;6789;47.678;9.158;2023-02-01T15:23:41;97554.50;;;6.22;70.82
13434;BME280;6789;47.678;9.158;2023-02-01T15:29:40;97554.56;;;6.14;72.38
13434;BME280;6789;47.678;9.158;2023-02-01T15:34:50;97561.88;;;6.19;73.67
13434;BME280;6789;47.678;9.158;2023-02-01T15:45:33;97581.66;;;6.05;74.03
13434;BME280;6789;47.678;9.158;2023-02-01T15:50:40;97588.19;;;6.01;73.17
13434;BME280;6789;47.678;9.158;2023-02-01T15:56:34;97578.47;;;5.95;74.37
13434;BME280;6789;47.678;9.158;2023-02-01T16:07:03;97605.22;;;5.89;74.65
13434;BME280;6789;47.678;9.158;2023-02-01T16:17:51;97608.59;;;5.90;72.97
13434;BME280;6789;47.678;9.158;2023-02-01T16:22:57;97604.75;;;5.86;72.65
13434;BME280;6789;47.678;9.158;2023-02-01T16:28:03;97615.34;;;5.84;70.89
13434;BME280;6789;47.678;9.158;2023-02-01T16:33:19;97622.16;;;5.85;71.77
13434;BME280;6789;47.678;9.158;2023-02-01T16:38:30;97629.31;;;5.83;70.99
13434;BME280;6789;47.678;9.158;2023-02-01T16:43:25;97626.72;;;5.83;71.20
13434;BME280;6789;47.678;9.158;2023-02-01T16:48:36;97632.72;;;5.84;71.10
13434;BME280;6789;47.678;9.158;2023-02-01T16:53:54;97626.72;;;5.83;71.39
13434;BME280;6789;47.678;9.158;2023-02-01T16:59:02;97632.91;;;5.82;71.71
13434;BME280;6789;47.678;9.158;2023-02-01T17:03:55;97631.47;;;5.80;72.67
13434;BME280;6789;47.678;9.158;2023-02-01T17:09:01;97633.09;;;5.81;72.55
13434;BME280;6789;47.678;9.158;2023-02-01T17:14:20;97604.28;;;5.74;73.19
13434;BME280;6789;47.678;9.158;2023-02-01T17:19:35;97624.50;;;5.72;73.32
13434;BME280;6789;47.678;9.158;2023-02-01T17:24:40;97620.09;;;5.73;73.04
13434;BME280;6789;47.678;9.158;2023-02-01T17:29:47;97622.03;;;5.71;73.78
13434;BME280;6789;47.678;9.158;2023-02-01T17:34:53;97614.41;;;5.69;72.91
13434;BME280;6789;47.678;9.158;2023-02-01T17:40:00;97618.34;;;5.65;73.70
13434;BME280;6789;47.678;9.158;2023-02-01T17:45:20;97613.16;;;5.65;73.30
13434;BME280;6789;47.678;9.158;2023-02-01T17:50:31;97622.56;;;5.66;73.26
13434;BME280;6789;47.678;9.158;2023-02-01T17:55:44;97613.75;;;5.67;73.87
13434;BME280;6789;47.678;9.158;2023-02-01T18:01:04;97618.97;;;5.67;72.86
13434;BME280;6789;47.678;9.158;2023-02-01T18:06:18;97625.78;;;5.68;73.05
13434;BME280;6789;47.678;9.158;2023-02-01T18:11:25;97628.41;;;5.68;72.91
13434;BME280;6789;47.678;9.158;2023-02-01T18:16:34;97624.81;;;5.69;72.91
13434;BME280;6789;47.678;9.158;2023-02-01T18:21:43;97616.22;;;5.69;72.88
13434;BME280;6789;47.678;9.158;2023-02-01T18:26:49;97610.84;;;5.70;72.36
13434;BME280;6789;47.678;9.158;2023-02-01T18:31:52;97609.22;;;5.69;72.72
13434;BME280;6789;47.678;9.158;2023-02-01T18:37:03;97602.38;;;5.68;72.78
13434;BME280;6789;47.678;9.158;2023-02-01T18:42:13;97594.94;;;5.65;72.34
13434;BME280;6789;47.678;9.158;2023-02-01T18:47:34;97619.63;;;5.69;72.96
13434;BME280;6789;47.678;9.158;2023-02-01T18:53:01;97629.22;;;5.69;73.32
13434;BME280;6789;47.678;9.158;2023-02-01T18:58:13;97638.13;;;5.74;73.26
13434;BME280;6789;47.678;9.158;2023-02-01T19:03:22;97654.22;;;5.78;72.40
13434;BME280;6789;47.678;9.158;2023-02-01T19:08:45;97655.06;;;5.78;72.90
13434;BME280;6789;47.678;9.158;2023-02-01T19:13:51;97671.66;;;5.77;73.01
13434;BME280;6789;47.678;9.158;2023-02-01T19:18:57;97686.44;;;5.77;73.07
13434;BME280;6789;47.678;9.158;2023-02-01T19:24:05;97691.16;;;5.73;73.96
13434;BME280;6789;47.678;9.158;2023-02-01T19:29:16;97686.56;;;5.75;73.27
13434;BME280;6789;47.678;9.158;2023-02-01T19:34:22;97684.34;;;5.72;73.75
13434;BME280;6789;47.678;9.158;2023-02-01T19:39:28;97695.25;;;5.76;74.14
13434;BME280;6789;47.678;9.158;2023-02-01T19:44:34;97683.50;;;5.72;74.53
13434;BME280;6789;47.678;9.158;2023-02-01T19:49:40;97666.63;;;5.68;74.47
13434;BME280;6789;47.678;9.158;2023-02-01T19:54:46;97660.78;;;5.66;75.43
13434;BME280;6789;47.678;9.158;2023-02-01T19:59:52;97680.78;;;5.65;75.23
13434;BME280;6789;47.678;9.158;2023-02-01T20:04:58;97687.94;;;5.63;75.48
13434;BME280;6789;47.678;9.158;2023-02-01T20:10:06;97702.28;;;5.60;75.33
13434;BME280;6789;47.678;9.158;2023-02-01T20:15:12;97685.03;;;5.59;75.99
13434;BME280;6789;47.678;9.158;2023-02-01T20:20:18;97694.78;;;5.57;76.18
13434;BME280;6789;47.678;9.158;2023-02-01T20:25:24;97688.78;;;5.56;75.77
13434;BME280;6789;47.678;9.158;2023-02-01T20:30:30;97695.78;;;5.56;75.89
13434;BME280;6789;47.678;9.158;2023-02-01T20:35:36;97699.38;;;5.55;75.90
13434;BME280;6789;47.678;9.158;2023-02-01T20:40:42;97705.56;;;5.54;75.49
13434;BME280;6789;47.678;9.158;2023-02-01T20:45:49;97701.34;;;5.53;75.79
13434;BME280;6789;47.678;9.158;2023-02-01T20:50:57;97705.56;;;5.54;75.50
13434;BME280;6789;47.678;9.158;2023-02-01T20:56:04;97700.50;;;5.52;75.52
13434;BME280;6789;47.678;9.158;2023-02-01T21:01:11;97699.69;;;5.52;75.36
13434;BME280;6789;47.678;9.158;2023-02-01T21:06:17;97692.84;;;5.59;75.13
13434;BME280;6789;47.678;9.158;2023-02-01T21:11:26;97691.41;;;5.56;75.36
13434;BME280;6789;47.678;9.158;2023-02-01T21:16:26;97705.38;;;5.55;75.08
13434;BME280;6789;47.678;9.158;2023-02-01T21:21:27;97696.78;;;5.55;75.55
13434;BME280;6789;47.678;9.158;2023-02-01T21:26:33;97686.53;;;5.53;75.09
13434;BME280;6789;47.678;9.158;2023-02-01T21:31:47;97700.34;;;5.54;74.56
13434;BME280;6789;47.678;9.158;2023-02-01T21:36:53;97704.59;;;5.55;74.76
13434;BME280;6789;47.678;9.158;2023-02-01T21:41:59;97699.69;;;5.52;75.69
13434;BME280;6789;47.678;9.158;2023-02-01T21:47:22;97690.09;;;5.52;76.07
13434;BME280;6789;47.678;9.158;2023-02-01T21:52:29;97686.22;;;5.48;76.45
13434;BME280;6789;47.678;9.158;2023-02-01T21:57:28;97686.59;;;5.45;76.74
13434;BME280;6789;47.678;9.158;2023-02-01T22:02:35;97679.09;;;5.42;77.25
13434;BME280;6789;47.678;9.158;2023-02-01T22:07:41;97690.19;;;5.36;78.26
13434;BME280;6789;47.678;9.158;2023-02-01T22:12:46;97692.66;;;5.30;78.39
13434;BME280;6789;47.678;9.158;2023-02-01T22:17:52;97708.56;;;5.35;78.07
13434;BME280;6789;47.678;9.158;2023-02-01T22:22:58;97712.44;;;5.31;78.09
13434;BME280;6789;47.678;9.158;2023-02-01T22:28:04;97714.44;;;5.29;78.31
13434;BME280;6789;47.678;9.158;2023-02-01T22:33:10;97708.91;;;5.24;78.89
13434;BME280;6789;47.678;9.158;2023-02-01T22:38:18;97715.72;;;5.25;79.27
13434;BME280;6789;47.678;9.158;2023-02-01T22:43:24;97698.66;;;5.22;78.72
13434;BME280;6789;47.678;9.158;2023-02-01T22:48:35;97707.28;;;5.23;79.50
13434;BME280;6789;47.678;9.158;2023-02-01T22:53:41;97707.44;;;5.21;79.23
13434;BME280;6789;47.678;9.158;2023-02-01T22:58:47;97710.69;;;5.23;79.10
13434;BME280;6789;47.678;9.158;2023-02-01T23:03:59;97711.66;;;5.22;79.25
13434;BME280;6789;47.678;9.158;2023-02-01T23:09:41;97708.75;;;5.25;79.53
13434;BME280;6789;47.678;9.158;2023-02-01T23:14:34;97706.31;;;5.24;79.77
13434;BME280;6789;47.678;9.158;2023-02-01T23:20:00;97716.53;;;5.25;79.76
13434;BME280;6789;47.678;9.158;2023-02-01T23:25:06;97710.88;;;5.22;80.44
13434;BME280;6789;47.678;9.158;2023-02-01T23:30:05;97719.63;;;5.21;80.18
13434;BME280;6789;47.678;9.158;2023-02-01T23:35:12;97702.59;;;5.18;80.35
13434;BME280;6789;47.678;9.158;2023-02-01T23:40:18;97706.81;;;5.19;80.27
13434;BME280;6789;47.678;9.158;2023-02-01T23:45:24;97706.03;;;5.11;81.25
13434;BME280;6789;47.678;9.158;2023-02-01T23:50:29;97704.88;;;5.13;80.59
13434;BME280;6789;47.678;9.158;2023-02-01T23:55:35;97699.03;;;5.11;81.01
